Anahola, Hawaii
Current Conditions -  °F | °C
As of 5:59 PM on Thursday 30 Oct 2014 (Local Time) from PHLI Reporting Station
Heavy Rain Heavy Rain  
Wind Chill: 75°   Ceiling: 2700
Heat Index: 75°   Visibility: 2.5mi
Dew Point: 70°   Wind: 16mph
Humidity: 83%   Direction: 60°ENE
Pressure: 30.07"   Gusts: 32mph
Location:  22.14°N, 159.31°W
Report Text: PHLI 310359Z 06014G28KT 2 1/2SM +RA SCT020 BKN027 OVC070 24/21 A3007 RMK AO2 PK WND 06028/0354 RAB55 P0001
Loading
Personal Weather Stations






























Interactive Weather Map
Tropical Storm Tracking
New forecast layout! Learn more

10-Day Weather Forecast

Advertisements
Track Severe Weather on mobile